Harrington, Delaware
Current Conditions -  °F | °C
As of 2:58 PM on Thursday 27 Nov 2014 (Local Time) from KDOV Reporting Station
Broken Clouds Broken Clouds  
Wind Chill: 35°   Ceiling: 8000
Heat Index: 42°   Visibility: 10mi
Dew Point: 30°   Wind: 13mph
Humidity: 62%   Direction: 300°WNW
Pressure: 30"   Gusts: NA
Location:  38.92°N, 75.58°W
Report Text: KDOV 271958Z AUTO 30011KT 10SM FEW032 BKN080 06/M01 A3000 RMK AO2 SLP162 T00561011
Loading
Personal Weather Stations






























Interactive Weather Map New forecast layout! Learn more

10-Day Weather Forecast

Advertisements
Track Severe Weather on mobile